Voyager — C6WC2 — position and weather

sailwx.info

Track history (hours):
 
Tides and Currents Weather Stations Pressure Air Temp Water Temp Dewpoint Dewpoint Depression Visibility Wind Speed Wind Dir Waves Ship Positions

Voyager

Last reported at 2015-May-22 20:04 UTC. Time now 2015-May-23 02:44 UTC.
Position N 58°57' E 010°28'.

Length 151 m; draft 6 m.

Type: Passenger vessel. MMSI: 309695000.

Date/timePositionNaut miles runAvg speedWind from/ knotsBaromVisibWave heightAir tempDewpointWater temp
2015-May-22 20:04N 58°57' E 010°28'510.1
2015-May-22 19:33N 59°01' E 010°34'1110.7
2015-May-22 18:34N 59°12' E 010°37'1616.1
2015-May-22 17:34N 59°28' E 010°33'9 0.6
2015-May-22 04:05N 59°36' E 010°38'815.9
2015-May-22 03:33N 59°28' E 010°34'1716.5
2015-May-22 02:34N 59°12' E 010°39'1212.3
2015-May-22 01:33N 58°60' E 010°34'1212.3
2015-May-22 00:33N 58°50' E 010°18'14711.3
2015-May-21 11:33N 58°02' E 005°54'1313.0
2015-May-21 10:33N 58°10' E 005°34'6114.3
2015-May-21 06:17N 59°02' E 004°31'  
2015-May-15 22:19N 53°07' E 002°39'1817.0
2015-May-15 21:17N 52°50' E 002°32'3115.2
2015-May-15 19:15N 52°22' E 002°11'1215.4
2015-May-15 18:29N 52°14' E 001°58'1415.3
2015-May-15 17:33N 52°04' E 001°41'1111.4
2015-May-15 16:33N 51°56' E 001°27'7 7.5
2015-May-15 15:33N 51°57' E 001°15'0 0.0
2015-May-15 14:31N 51°57' E 001°15'0 0.0
2015-May-15 13:31N 51°57' E 001°15'0 0.0
2015-May-15 12:31N 51°57' E 001°15'0 0.0
2015-May-15 11:31N 51°57' E 001°15'0 0.0
2015-May-15 10:31N 51°57' E 001°15'0 0.0
2015-May-15 09:31N 51°57' E 001°15'0 0.0
2015-May-15 08:31N 51°57' E 001°15'0 0.3
2015-May-15 07:34N 51°57' E 001°16'9 9.2
2015-May-15 06:33N 51°57' E 001°31'9 9.2
2015-May-15 05:33N 51°51' E 001°43'9 9.3
2015-May-15 04:33N 51°43' E 001°48'1111.3
2015-May-15 03:33N 51°32' E 001°53'1110.6
2015-May-15 02:33N 51°22' E 002°00'1212.3
2015-May-15 01:33N 51°12' E 001°48'1313.0
2015-May-15 00:34N 51°02' E 001°35'1413.4
2015-May-14 23:32N 50°50' E 001°24'8714.6
2015-May-14 17:34N 49°47' W 000°09'1515.1
2015-May-14 16:34N 49°32' W 000°14'1211.7
2015-May-14 15:33N 49°27' E 000°02'8 8.0
2015-May-14 14:33N 49°26' E 000°15'0 0.0
2015-May-14 13:33N 49°26' E 000°15'0 0.0
2015-May-14 12:30N 49°26' E 000°15'0 0.0
2015-May-14 11:33N 49°26' E 000°15'0 0.0
2015-May-14 10:33N 49°26' E 000°15'0 0.0
2015-May-14 09:33N 49°26' E 000°15'0 0.0
2015-May-14 08:33N 49°26' E 000°15'0 0.0
2015-May-14 07:33N 49°26' E 000°15'0 0.0
2015-May-14 06:33N 49°26' E 000°15'0 0.0
2015-May-14 05:33N 49°26' E 000°15'4 4.1
2015-May-14 04:33N 49°26' E 000°08'1110.7
2015-May-14 03:33N 49°29' W 000°07'10 9.4
2015-May-14 02:33N 49°34' W 000°20'9 9.2
2015-May-14 01:33N 49°38' W 000°32'10 9.8
2015-May-14 00:33N 49°43' W 000°46'1110.5
2015-May-13 23:33N 49°47' W 001°00'1511.3
2015-May-13 22:14N 49°50' W 001°23'910.6
2015-May-13 21:25N 49°50' W 001°37'910.8
2015-May-13 20:33N 49°49' W 001°51'10 9.9
2015-May-13 19:33N 49°44' W 002°04'1110.5
2015-May-13 18:33N 49°34' W 002°09'1511.0
2015-May-13 17:12N 49°22' W 002°22'710.5
2015-May-13 16:33N 49°27' W 002°30'1 0.8
2015-May-13 15:24N 49°28' W 002°30'0 0.0
2015-May-13 14:33N 49°28' W 002°30'0 0.0
2015-May-13 13:30N 49°28' W 002°30'0 0.0
2015-May-13 12:30N 49°28' W 002°30'6 0.8
2015-May-13 05:27N 49°23' W 002°25'7 7.9
2015-May-13 04:34N 49°24' W 002°14'10 9.4
2015-May-13 03:32N 49°33' W 002°10'19 9.5
2015-May-13 01:33N 49°50' W 001°56'1110.5
2015-May-13 00:32N 49°58' W 001°46'1111.0
2015-May-12 23:33N 50°06' W 001°35'1511.7
2015-May-12 22:14N 50°18' W 001°20'812.3
2015-May-12 21:33N 50°25' W 001°12'1312.4
2015-May-12 20:32N 50°35' W 000°60'  
Track history (hours):
 
Tides and Currents Weather Stations Pressure Air Temp Water Temp Dewpoint Dewpoint Depression Visibility Wind Speed Wind Dir Waves Ship Positions

Voyager

Last reported at 2015-May-22 20:04 UTC. Time now 2015-May-23 02:44 UTC.
Position N 58°57' E 010°28'.

Length 151 m; draft 6 m.

Type: Passenger vessel. MMSI: 309695000.

Date/timePositionNaut miles runAvg speedWind from/ knotsBaromVisibWave heightAir tempDewpointWater temp
2015-May-22 20:04N 58°57' E 010°28'510.1
2015-May-22 19:33N 59°01' E 010°34'1110.7
2015-May-22 18:34N 59°12' E 010°37'1616.1
2015-May-22 17:34N 59°28' E 010°33'9 0.6
2015-May-22 04:05N 59°36' E 010°38'815.9
2015-May-22 03:33N 59°28' E 010°34'1716.5
2015-May-22 02:34N 59°12' E 010°39'1212.3
2015-May-22 01:33N 58°60' E 010°34'1212.3
2015-May-22 00:33N 58°50' E 010°18'14711.3
2015-May-21 11:33N 58°02' E 005°54'1313.0
2015-May-21 10:33N 58°10' E 005°34'6114.3
2015-May-21 06:17N 59°02' E 004°31'  
2015-May-15 22:19N 53°07' E 002°39'1817.0
2015-May-15 21:17N 52°50' E 002°32'3115.2
2015-May-15 19:15N 52°22' E 002°11'1215.4
2015-May-15 18:29N 52°14' E 001°58'1415.3
2015-May-15 17:33N 52°04' E 001°41'1111.4
2015-May-15 16:33N 51°56' E 001°27'7 7.5
2015-May-15 15:33N 51°57' E 001°15'0 0.0
2015-May-15 14:31N 51°57' E 001°15'0 0.0
2015-May-15 13:31N 51°57' E 001°15'0 0.0
2015-May-15 12:31N 51°57' E 001°15'0 0.0
2015-May-15 11:31N 51°57' E 001°15'0 0.0
2015-May-15 10:31N 51°57' E 001°15'0 0.0
2015-May-15 09:31N 51°57' E 001°15'0 0.0
2015-May-15 08:31N 51°57' E 001°15'0 0.3
2015-May-15 07:34N 51°57' E 001°16'9 9.2
2015-May-15 06:33N 51°57' E 001°31'9 9.2
2015-May-15 05:33N 51°51' E 001°43'9 9.3
2015-May-15 04:33N 51°43' E 001°48'1111.3
2015-May-15 03:33N 51°32' E 001°53'1110.6
2015-May-15 02:33N 51°22' E 002°00'1212.3
2015-May-15 01:33N 51°12' E 001°48'1313.0
2015-May-15 00:34N 51°02' E 001°35'1413.4
2015-May-14 23:32N 50°50' E 001°24'8714.6
2015-May-14 17:34N 49°47' W 000°09'1515.1
2015-May-14 16:34N 49°32' W 000°14'1211.7
2015-May-14 15:33N 49°27' E 000°02'8 8.0
2015-May-14 14:33N 49°26' E 000°15'0 0.0
2015-May-14 13:33N 49°26' E 000°15'0 0.0
2015-May-14 12:30N 49°26' E 000°15'0 0.0
2015-May-14 11:33N 49°26' E 000°15'0 0.0
2015-May-14 10:33N 49°26' E 000°15'0 0.0
2015-May-14 09:33N 49°26' E 000°15'0 0.0
2015-May-14 08:33N 49°26' E 000°15'0 0.0
2015-May-14 07:33N 49°26' E 000°15'0 0.0
2015-May-14 06:33N 49°26' E 000°15'0 0.0
2015-May-14 05:33N 49°26' E 000°15'4 4.1
2015-May-14 04:33N 49°26' E 000°08'1110.7
2015-May-14 03:33N 49°29' W 000°07'10 9.4
2015-May-14 02:33N 49°34' W 000°20'9 9.2
2015-May-14 01:33N 49°38' W 000°32'10 9.8
2015-May-14 00:33N 49°43' W 000°46'1110.5
2015-May-13 23:33N 49°47' W 001°00'1511.3
2015-May-13 22:14N 49°50' W 001°23'910.6
2015-May-13 21:25N 49°50' W 001°37'910.8
2015-May-13 20:33N 49°49' W 001°51'10 9.9
2015-May-13 19:33N 49°44' W 002°04'1110.5
2015-May-13 18:33N 49°34' W 002°09'1511.0
2015-May-13 17:12N 49°22' W 002°22'710.5
2015-May-13 16:33N 49°27' W 002°30'1 0.8
2015-May-13 15:24N 49°28' W 002°30'0 0.0
2015-May-13 14:33N 49°28' W 002°30'0 0.0
2015-May-13 13:30N 49°28' W 002°30'0 0.0
2015-May-13 12:30N 49°28' W 002°30'6 0.8
2015-May-13 05:27N 49°23' W 002°25'7 7.9
2015-May-13 04:34N 49°24' W 002°14'10 9.4
2015-May-13 03:32N 49°33' W 002°10'19 9.5
2015-May-13 01:33N 49°50' W 001°56'1110.5
2015-May-13 00:32N 49°58' W 001°46'1111.0
2015-May-12 23:33N 50°06' W 001°35'1511.7
2015-May-12 22:14N 50°18' W 001°20'812.3
2015-May-12 21:33N 50°25' W 001°12'1312.4
2015-May-12 20:32N 50°35' W 000°60'  

Dump ship's entire track history